Time;durP1;ratioP1;P1;durP2;ratioP2;P2;SDS_P1;SDS_P2;PMS_P1;PMS_P2;Temp;Humidity;BMP_temperature;BMP_pressure;BME280_temperature;BME280_humidity;BME280_pressure;Samples;Min_cycle;Max_cycle;Signal;HPM_P1;HPM_P2
2022/10/15 00:01:40;;;;;;;;;24.00;21.00;;;;;17.23;61.57;98742.56;6223251;28;96272;-66
2022/10/15 00:04:44;;;;;;;;;20.00;19.00;;;;;17.21;61.70;98734.66;6236627;28;96252;-66
2022/10/15 00:07:49;;;;;;;;;24.20;22.00;;;;;17.26;61.88;98744.75;6201595;28;98408;-66
2022/10/15 00:10:52;;;;;;;;;20.00;19.00;;;;;17.27;61.83;98730.88;6220923;28;96408;-66
2022/10/15 00:13:58;;;;;;;;;23.20;22.00;;;;;17.30;61.64;98734.94;6205077;28;96450;-65
2022/10/15 00:17:01;;;;;;;;;22.00;20.00;;;;;17.32;61.71;98732.78;6228635;28;96628;-65
2022/10/15 00:20:07;;;;;;;;;21.00;20.00;;;;;17.33;61.95;98731.72;6230066;28;98471;-65
2022/10/15 00:23:12;;;;;;;;;22.20;19.60;;;;;17.19;62.01;98701.44;6235692;28;96269;-65
2022/10/15 00:26:18;;;;;;;;;23.00;21.00;;;;;17.32;62.22;98714.53;6244368;28;96449;-65
2022/10/15 00:29:21;;;;;;;;;22.00;21.00;;;;;17.37;62.18;98715.63;6205184;28;97295;-66
2022/10/15 00:32:28;;;;;;;;;19.60;18.60;;;;;17.43;62.17;98714.56;6225928;28;96231;-66
2022/10/15 00:35:31;;;;;;;;;20.80;18.80;;;;;17.43;61.90;98711.84;6234291;28;96451;-65
2022/10/15 00:38:36;;;;;;;;;22.80;21.40;;;;;17.49;62.08;98713.47;6214630;28;96361;-65
2022/10/15 00:41:42;;;;;;;;;20.00;18.80;;;;;17.50;62.07;98712.38;6230235;28;96355;-65
2022/10/15 00:44:56;;;;;;;;;20.40;20.00;;;;;17.51;62.02;98714.84;6247945;28;98107;-65
2022/10/15 00:48:00;;;;;;;;;20.80;18.20;;;;;17.52;62.11;98718.38;6239771;28;96565;-66
2022/10/15 00:51:04;;;;;;;;;22.75;20.00;;;;;17.55;62.48;98712.38;6231093;28;96350;-65
2022/10/15 00:54:11;;;;;;;;;19.40;19.20;;;;;17.53;62.31;98709.94;6223458;28;96256;-65
2022/10/15 00:57:15;;;;;;;;;21.40;20.00;;;;;17.55;62.59;98709.66;6213151;28;96888;-65
2022/10/15 01:00:19;;;;;;;;;22.00;19.60;;;;;17.55;62.60;98704.19;6219286;28;96446;-65
2022/10/15 01:03:23;;;;;;;;;22.20;20.20;;;;;17.55;62.54;98701.47;6236850;28;96254;-66
2022/10/15 01:06:27;;;;;;;;;23.20;21.60;;;;;17.50;62.57;98685.13;6235825;28;96288;-66
2022/10/15 01:09:32;;;;;;;;;19.20;17.40;;;;;17.53;61.88;98700.94;6222265;28;96287;-65
2022/10/15 01:12:56;;;;;;;;;23.40;21.00;;;;;17.51;62.29;98698.47;6220788;28;96241;-66
2022/10/15 01:16:12;;;;;;;;;21.00;20.40;;;;;17.50;62.09;98696.00;6211405;28;96536;-65
2022/10/15 01:19:31;;;;;;;;;19.40;17.40;;;;;17.48;62.07;98684.59;6218799;28;96283;-64
2022/10/15 01:22:56;;;;;;;;;18.00;17.75;;;;;17.42;61.61;98682.94;6233836;28;96988;-66
2022/10/15 01:26:19;;;;;;;;;17.20;15.80;;;;;17.39;61.76;98680.75;6214519;28;96638;-66
2022/10/15 01:29:47;;;;;;;;;20.00;20.00;;;;;17.43;61.84;98687.31;6225304;28;96486;-66
2022/10/15 01:33:04;;;;;;;;;21.60;19.00;;;;;17.46;61.63;98684.84;6206684;28;96901;-66
2022/10/15 01:36:16;;;;;;;;;19.60;17.60;;;;;17.51;61.28;98684.03;6206396;28;97679;-66
2022/10/15 01:39:26;;;;;;;;;18.00;18.00;;;;;17.47;61.41;98669.31;6206767;28;96190;-66
2022/10/15 01:42:38;;;;;;;;;19.40;19.00;;;;;17.49;61.01;98680.78;6206631;28;96328;-66
2022/10/15 01:45:48;;;;;;;;;19.60;18.60;;;;;17.42;61.43;98681.03;6220111;28;96359;-65
2022/10/15 01:49:14;;;;;;;;;19.00;17.00;;;;;17.38;61.15;98679.94;6221068;28;97015;-66
2022/10/15 01:52:23;;;;;;;;;18.80;17.20;;;;;17.38;61.20;98677.22;6189232;28;96822;-65
2022/10/15 01:55:27;;;;;;;;;21.00;19.00;;;;;17.33;61.24;98677.22;6195537;28;96653;-66
2022/10/15 01:58:32;;;;;;;;;20.00;18.00;;;;;17.30;61.12;98673.09;6207817;28;96416;-66
2022/10/15 02:01:35;;;;;;;;;20.80;19.00;;;;;17.28;61.38;98677.19;6218252;28;96946;-65
2022/10/15 02:04:41;;;;;;;;;19.75;17.75;;;;;17.27;61.17;98670.09;6204675;28;96386;-66
2022/10/15 02:07:53;;;;;;;;;21.00;19.25;;;;;17.22;61.19;98665.47;6219160;28;96533;-65
2022/10/15 02:11:00;;;;;;;;;18.20;18.00;;;;;17.08;61.09;98656.19;6203152;28;96284;-65
2022/10/15 02:14:14;;;;;;;;;18.00;17.00;;;;;16.99;61.14;98636.03;6229545;28;96199;-66
2022/10/15 02:17:28;;;;;;;;;19.50;18.00;;;;;17.07;61.32;98660.00;6223601;28;96556;-66
2022/10/15 02:20:41;;;;;;;;;22.00;19.60;;;;;17.04;61.59;98651.56;6205092;28;97856;-65
2022/10/15 02:23:52;;;;;;;;;18.00;17.00;;;;;17.02;61.68;98651.00;6206232;28;96295;-65
2022/10/15 02:27:01;;;;;;;;;22.00;20.00;;;;;16.97;61.71;98650.97;6227466;28;96322;-66
2022/10/15 02:30:09;;;;;;;;;16.60;14.60;;;;;16.93;61.98;98647.97;6200964;28;99027;-65
2022/10/15 02:33:13;;;;;;;;;18.00;16.50;;;;;16.93;62.02;98661.59;6233153;28;96356;-65
2022/10/15 02:36:19;;;;;;;;;20.00;18.40;;;;;16.92;62.06;98651.78;6224114;28;96163;-65
2022/10/15 02:39:24;;;;;;;;;20.00;19.00;;;;;16.90;62.33;98659.41;6220103;28;96468;-66
2022/10/15 02:42:28;;;;;;;;;17.80;16.20;;;;;16.80;62.11;98652.03;6204480;28;96696;-65
2022/10/15 02:45:32;;;;;;;;;19.60;17.60;;;;;16.87;62.50;98659.94;6233469;28;96534;-66
2022/10/15 02:48:36;;;;;;;;;21.00;19.00;;;;;16.83;62.75;98651.50;6211582;28;96391;-65
2022/10/15 02:51:41;;;;;;;;;22.00;19.75;;;;;16.80;62.87;98646.59;6232846;28;96919;-66
2022/10/15 02:54:44;;;;;;;;;19.20;18.00;;;;;16.66;63.36;98640.03;6217982;28;96264;-65
2022/10/15 02:57:48;;;;;;;;;20.40;19.00;;;;;16.76;63.30;98648.19;6201678;28;96479;-65
2022/10/15 03:00:51;;;;;;;;;22.60;19.60;;;;;16.70;63.34;98634.84;6233303;28;96458;-65
2022/10/15 03:03:55;;;;;;;;;30.80;28.80;;;;;16.77;63.58;98643.56;6224520;28;97758;-65
2022/10/15 03:07:00;;;;;;;;;27.40;24.80;;;;;16.78;64.08;98628.88;6227779;28;96267;-65
2022/10/15 03:10:06;;;;;;;;;29.20;27.80;;;;;16.81;64.07;98626.44;6204780;28;96905;-66
2022/10/15 03:13:09;;;;;;;;;28.25;25.00;;;;;16.81;64.25;98634.59;6222205;28;98421;-64
2022/10/15 03:16:20;;;;;;;;;31.75;28.75;;;;;16.77;64.69;98641.66;6203333;28;96850;-65
2022/10/15 03:19:23;;;;;;;;;31.00;27.00;;;;;16.67;64.58;98611.69;6220667;28;96464;-65
2022/10/15 03:22:29;;;;;;;;;32.00;28.20;;;;;16.79;64.63;98630.50;6218612;28;96229;-66
2022/10/15 03:25:33;;;;;;;;;32.60;29.00;;;;;16.79;64.69;98631.34;6188594;28;97623;-65
2022/10/15 03:28:39;;;;;;;;;33.60;30.20;;;;;16.77;64.77;98627.22;6188082;28;97307;-65
2022/10/15 03:31:43;;;;;;;;;32.00;27.00;;;;;16.75;64.65;98624.81;6191094;28;98574;-65
2022/10/15 03:34:46;;;;;;;;;26.60;26.00;;;;;16.77;64.43;98633.50;6214487;28;97274;-65
2022/10/15 03:37:53;;;;;;;;;27.50;24.50;;;;;16.82;64.08;98621.81;6200623;28;98477;-65
2022/10/15 03:40:57;;;;;;;;;27.00;23.60;;;;;16.94;63.22;98627.00;6210592;28;96341;-66
2022/10/15 03:44:08;;;;;;;;;24.00;23.00;;;;;16.97;62.88;98626.47;6217521;28;96822;-66
2022/10/15 03:47:16;;;;;;;;;25.00;22.00;;;;;17.01;62.69;98620.22;6213700;28;96478;-65
2022/10/15 03:50:24;;;;;;;;;21.00;20.50;;;;;17.08;62.00;98617.22;6205390;28;96248;-65
2022/10/15 03:53:29;;;;;;;;;23.00;22.00;;;;;17.11;61.70;98617.50;6227614;28;96496;-65
2022/10/15 03:56:32;;;;;;;;;20.00;18.40;;;;;17.18;61.30;98609.91;6215644;28;96302;-65
2022/10/15 03:59:53;;;;;;;;;22.00;18.00;;;;;17.25;60.51;98606.91;6218927;28;96382;-65
2022/10/15 04:02:58;;;;;;;;;24.40;21.40;;;;;17.08;60.09;98573.66;6219002;28;96138;-65
2022/10/15 04:06:04;;;;;;;;;23.00;19.00;;;;;17.33;59.96;98599.00;6203691;28;98592;-65
2022/10/15 04:09:11;;;;;;;;;22.00;20.25;;;;;17.36;59.71;98594.09;6201350;28;97856;-65
2022/10/15 04:12:14;;;;;;;;;22.00;20.33;;;;;17.37;59.50;98598.44;6223930;28;97251;-65
2022/10/15 04:15:18;;;;;;;;;22.00;19.33;;;;;17.25;59.63;98601.47;6204967;28;96489;-65
2022/10/15 04:18:31;;;;;;;;;22.40;21.20;;;;;17.30;59.48;98598.72;6194091;28;98670;-66
2022/10/15 04:21:35;;;;;;;;;22.80;20.40;;;;;17.37;59.01;98601.19;6217340;28;96352;-66
2022/10/15 04:24:41;;;;;;;;;20.50;18.75;;;;;17.24;58.99;98597.09;6227654;28;96253;-66
2022/10/15 04:27:45;;;;;;;;;24.00;21.40;;;;;17.26;59.23;98611.25;6197659;28;96667;-65
2022/10/15 04:30:52;;;;;;;;;21.00;20.00;;;;;17.17;59.26;98612.88;6211355;28;96863;-66
2022/10/15 04:33:56;;;;;;;;;19.40;18.00;;;;;17.19;58.95;98599.81;6202029;28;97519;-65
2022/10/15 04:37:00;;;;;;;;;22.00;17.00;;;;;17.21;58.87;98606.63;6189673;28;98384;-65
2022/10/15 04:40:08;;;;;;;;;22.20;19.20;;;;;17.27;58.78;98605.53;6225057;28;96862;-66
2022/10/15 04:43:11;;;;;;;;;21.50;19.00;;;;;17.35;58.61;98608.81;6206278;28;98325;-65
2022/10/15 04:46:15;;;;;;;;;19.60;19.00;;;;;17.29;58.35;98600.66;6225948;28;96928;-65
2022/10/15 04:49:18;;;;;;;;;21.80;19.00;;;;;17.25;58.87;98599.53;6218654;28;96248;-65
2022/10/15 04:52:22;;;;;;;;;19.00;17.00;;;;;17.07;59.37;98608.25;6218118;28;98304;-65
2022/10/15 04:55:31;;;;;;;;;20.40;19.40;;;;;17.10;59.58;98587.84;6206346;28;97242;-65
2022/10/15 04:58:36;;;;;;;;;22.60;19.00;;;;;17.09;59.50;98595.19;6219091;28;96543;-66
2022/10/15 05:01:40;;;;;;;;;19.75;18.00;;;;;17.02;59.61;98594.63;6206034;28;96227;-66
2022/10/15 05:04:45;;;;;;;;;20.40;18.20;;;;;17.14;59.64;98594.38;6201422;28;98443;-66
2022/10/15 05:07:48;;;;;;;;;19.25;18.00;;;;;17.06;59.32;98595.69;6217176;28;96357;-66
2022/10/15 05:10:53;;;;;;;;;21.00;18.00;;;;;17.19;59.43;98597.91;6227017;28;96917;-65
2022/10/15 05:13:58;;;;;;;;;19.40;19.40;;;;;17.17;59.39;98602.00;6195894;28;96974;-66
2022/10/15 05:17:03;;;;;;;;;19.60;18.00;;;;;17.21;59.13;98601.16;6218649;28;96630;-65
2022/10/15 05:20:12;;;;;;;;;21.00;18.00;;;;;17.33;58.79;98593.56;6202246;28;96383;-65
2022/10/15 05:23:16;;;;;;;;;22.00;21.00;;;;;17.33;58.63;98592.75;6188681;28;96826;-65
2022/10/15 05:26:32;;;;;;;;;18.00;17.33;;;;;17.38;58.22;98595.47;6211820;28;99215;-65
2022/10/15 05:29:37;;;;;;;;;22.00;20.00;;;;;17.39;57.90;98601.75;6220938;28;96304;-66
2022/10/15 05:32:40;;;;;;;;;20.00;18.00;;;;;17.55;57.34;98600.63;6210493;28;96256;-65
2022/10/15 05:35:46;;;;;;;;;19.20;17.20;;;;;17.62;56.80;98590.31;6209848;28;96527;-65
2022/10/15 05:38:52;;;;;;;;;25.00;19.00;;;;;17.78;56.36;98594.66;6220265;28;96756;-65
2022/10/15 05:41:57;;;;;;;;;21.40;19.60;;;;;18.00;55.67;98597.88;6227446;28;96372;-65
2022/10/15 05:45:22;;;;;;;;;18.25;17.00;;;;;18.18;54.55;98599.16;6201445;28;96740;-65
2022/10/15 05:48:26;;;;;;;;;18.00;17.00;;;;;18.32;53.70;98600.22;6224284;28;96505;-65
2022/10/15 05:51:29;;;;;;;;;20.00;18.00;;;;;18.63;52.85;98600.09;6204248;28;98661;-65
2022/10/15 05:54:38;;;;;;;;;22.60;19.40;;;;;18.74;52.28;98610.72;6218814;28;96331;-65
2022/10/15 05:57:43;;;;;;;;;16.20;15.00;;;;;18.76;51.53;98599.50;6235863;28;96250;-66
2022/10/15 06:00:53;;;;;;;;;19.00;18.00;;;;;18.80;52.07;98601.41;6205611;28;96746;-66
2022/10/15 06:03:56;;;;;;;;;19.60;17.60;;;;;18.97;51.03;98604.56;6224963;28;96301;-68
2022/10/15 06:07:01;;;;;;;;;22.00;19.40;;;;;19.35;50.00;98613.06;6217704;28;98568;-65
2022/10/15 06:10:05;;;;;;;;;18.40;17.40;;;;;19.46;49.01;98618.16;6226290;28;96473;-65
2022/10/15 06:13:13;;;;;;;;;20.00;17.00;;;;;19.71;48.89;98616.31;6206252;28;98565;-67
2022/10/15 06:16:18;;;;;;;;;18.40;17.00;;;;;20.01;47.53;98615.22;6215136;28;96769;-66
2022/10/15 06:19:26;;;;;;;;;20.60;19.00;;;;;20.22;47.17;98624.84;6215441;28;97349;-67
2022/10/15 06:22:30;;;;;;;;;17.00;16.60;;;;;20.24;46.98;98628.91;6215922;28;96890;-67
2022/10/15 06:25:34;;;;;;;;;19.00;18.50;;;;;20.73;46.24;98628.63;6221714;28;97065;-67
2022/10/15 06:28:39;;;;;;;;;22.50;20.50;;;;;22.53;42.46;98639.97;6198538;28;97499;-67
2022/10/15 06:31:42;;;;;;;;;20.50;18.00;;;;;23.72;39.58;98632.06;6214927;28;96647;-67
2022/10/15 06:34:46;;;;;;;;;18.00;17.80;;;;;23.87;37.92;98638.31;6225406;28;96257;-66
2022/10/15 06:37:50;;;;;;;;;20.00;19.00;;;;;23.91;38.05;98639.31;6201345;28;97558;-67
2022/10/15 06:40:53;;;;;;;;;20.40;18.40;;;;;23.63;38.30;98644.16;6200712;28;96354;-67
2022/10/15 06:43:57;;;;;;;;;20.00;19.00;;;;;23.38;38.81;98650.22;6203761;28;96506;-67
2022/10/15 06:47:01;;;;;;;;;16.40;16.00;;;;;22.87;39.81;98654.13;6218838;28;96491;-66
2022/10/15 06:50:06;;;;;;;;;20.00;17.00;;;;;22.55;40.44;98645.97;6216952;28;96436;-67
2022/10/15 06:53:11;;;;;;;;;23.00;21.00;;;;;22.34;40.71;98643.63;6214155;28;99165;-67
2022/10/15 06:56:15;;;;;;;;;21.00;18.00;;;;;22.24;41.22;98643.00;6216163;28;97136;-65
2022/10/15 06:59:21;;;;;;;;;19.75;18.00;;;;;22.78;40.84;98633.97;6184897;28;96820;-66
2022/10/15 07:02:25;;;;;;;;;18.00;17.00;;;;;22.84;40.53;98628.06;6202675;28;96893;-67
2022/10/15 07:05:28;;;;;;;;;20.00;18.00;;;;;23.04;40.17;98624.06;6221900;28;97904;-67
2022/10/15 07:08:32;;;;;;;;;22.00;19.50;;;;;23.17;39.61;98631.44;6204698;28;98398;-67
2022/10/15 07:11:35;;;;;;;;;21.00;20.20;;;;;22.73;40.00;98625.81;6216777;28;98574;-66
2022/10/15 07:14:40;;;;;;;;;21.20;18.20;;;;;22.62;40.51;98625.22;6194781;28;96298;-67
2022/10/15 07:17:48;;;;;;;;;17.75;16.75;;;;;22.48;40.46;98629.88;6200586;28;96697;-66
2022/10/15 07:20:52;;;;;;;;;19.00;17.00;;;;;22.63;40.38;98629.56;6212770;28;96274;-67
2022/10/15 07:23:55;;;;;;;;;20.60;19.60;;;;;22.93;39.90;98632.81;6211943;28;96514;-65
2022/10/15 07:26:58;;;;;;;;;19.00;19.00;;;;;22.85;39.76;98634.38;6219903;28;96543;-67
2022/10/15 07:30:11;;;;;;;;;20.50;18.00;;;;;22.84;39.07;98627.25;6194342;28;96377;-65
2022/10/15 07:33:16;;;;;;;;;20.00;19.00;;;;;23.16;39.23;98642.78;6213776;28;96581;-66
2022/10/15 07:36:28;;;;;;;;;20.20;18.20;;;;;23.32;38.73;98639.34;6212628;28;96306;-66
2022/10/15 07:39:32;;;;;;;;;18.00;18.00;;;;;23.42;39.08;98626.47;6211832;28;96573;-67
2022/10/15 07:42:41;;;;;;;;;19.00;16.00;;;;;23.30;38.43;98641.63;6216145;28;96291;-66
2022/10/15 07:45:49;;;;;;;;;19.00;16.40;;;;;23.19;39.12;98644.91;6216798;28;96657;-66
2022/10/15 07:48:52;;;;;;;;;23.20;19.00;;;;;23.11;39.21;98648.38;6224560;28;97055;-66
2022/10/15 07:51:56;;;;;;;;;18.25;17.25;;;;;22.93;38.94;98638.31;6218250;28;96478;-66
2022/10/15 07:54:59;;;;;;;;;19.00;18.00;;;;;23.18;39.21;98640.50;6200147;28;96754;-66
2022/10/15 07:58:06;;;;;;;;;18.00;17.00;;;;;23.64;38.09;98638.34;6198270;28;97247;-67
2022/10/15 08:01:11;;;;;;;;;18.60;16.60;;;;;24.27;36.69;98636.47;6203482;28;96834;-65
2022/10/15 08:04:15;;;;;;;;;21.00;20.00;;;;;27.01;33.45;98634.69;6208722;28;97009;-67
2022/10/15 08:07:20;;;;;;;;;18.60;17.20;;;;;29.42;28.67;98635.59;6199735;28;96369;-67
2022/10/15 08:10:23;;;;;;;;;19.40;18.00;;;;;31.32;26.81;98643.78;6216263;27;96303;-67
2022/10/15 08:13:26;;;;;;;;;20.00;18.50;;;;;33.24;24.11;98634.19;6211390;28;96683;-67
2022/10/15 08:16:31;;;;;;;;;17.40;16.00;;;;;34.85;20.79;98635.63;6211095;28;96251;-68
2022/10/15 08:19:34;;;;;;;;;19.00;16.60;;;;;36.16;20.32;98631.53;6195578;28;96767;-68
2022/10/15 08:22:38;;;;;;;;;20.50;17.00;;;;;35.81;20.97;98645.44;6196727;28;96496;-67
2022/10/15 08:25:42;;;;;;;;;16.20;15.00;;;;;35.54;21.08;98640.06;6192911;28;98015;-68
2022/10/15 08:28:47;;;;;;;;;18.00;17.00;;;;;34.70;21.40;98631.91;6211290;28;96472;-67
2022/10/15 08:31:52;;;;;;;;;18.00;17.00;;;;;34.58;21.82;98644.19;6196661;28;98394;-68
2022/10/15 08:34:58;;;;;;;;;17.60;14.60;;;;;34.45;21.29;98631.69;6222957;28;96531;-67
2022/10/15 08:38:07;;;;;;;;;18.40;16.80;;;;;34.65;20.61;98641.44;6201997;28;96687;-68
2022/10/15 08:41:23;;;;;;;;;17.00;16.00;;;;;33.61;20.95;98646.28;6211376;28;96503;-67
2022/10/15 08:44:29;;;;;;;;;18.60;17.00;;;;;33.14;22.10;98570.56;6204138;28;98824;-67
2022/10/15 08:47:40;;;;;;;;;17.00;16.00;;;;;33.74;21.36;98633.69;6201629;28;96658;-67
2022/10/15 08:50:48;;;;;;;;;16.80;16.00;;;;;33.97;20.46;98638.34;6224302;28;96237;-68
2022/10/15 08:54:00;;;;;;;;;16.00;15.00;;;;;34.05;21.41;98626.06;6212611;28;96387;-67
2022/10/15 08:57:16;;;;;;;;;17.00;15.75;;;;;34.91;19.94;98631.25;6211477;28;96463;-66
2022/10/15 09:00:21;;;;;;;;;16.00;14.00;;;;;34.77;19.58;98629.16;6197924;28;96456;-66
2022/10/15 09:03:36;;;;;;;;;15.00;13.75;;;;;34.83;19.64;98633.22;6201279;28;96675;-68
2022/10/15 09:06:40;;;;;;;;;16.60;15.20;;;;;34.49;20.23;98623.31;6214717;28;96428;-66
2022/10/15 09:09:48;;;;;;;;;15.40;14.40;;;;;32.97;20.97;98625.81;6216226;28;96430;-67
2022/10/15 09:12:58;;;;;;;;;17.00;16.00;;;;;31.60;22.26;98630.50;6204691;28;98449;-67
2022/10/15 09:16:05;;;;;;;;;17.00;16.00;;;;;30.66;23.86;98632.66;6193631;28;97248;-67
2022/10/15 09:19:17;;;;;;;;;17.60;16.00;;;;;29.59;25.05;98632.53;6215436;28;96327;-67
2022/10/15 09:22:24;;;;;;;;;16.20;14.60;;;;;29.17;25.89;98618.19;6222238;28;97087;-67
2022/10/15 09:25:34;;;;;;;;;15.60;15.00;;;;;28.75;26.21;98639.03;6213040;28;96287;-67
2022/10/15 09:28:45;;;;;;;;;18.60;16.40;;;;;28.47;26.50;98636.13;6213874;28;96398;-67
2022/10/15 09:32:06;;;;;;;;;16.40;15.40;;;;;28.64;26.08;98629.53;6212937;28;96679;-67
2022/10/15 09:35:17;;;;;;;;;15.00;14.00;;;;;28.79;26.94;98638.00;6194532;28;96663;-68
2022/10/15 09:38:38;;;;;;;;;14.00;14.00;;;;;28.15;27.10;98637.78;6215392;28;99225;-66
2022/10/15 09:41:53;;;;;;;;;15.00;15.00;;;;;28.08;26.49;98645.84;6181407;28;96694;-65
2022/10/15 09:45:00;;;;;;;;;17.50;15.00;;;;;28.29;26.69;98649.41;6225224;28;97263;-67
2022/10/15 09:48:14;;;;;;;;;17.60;14.20;;;;;28.04;27.09;98650.47;6222797;28;96329;-67
2022/10/15 09:51:26;;;;;;;;;16.00;15.00;;;;;29.38;26.30;98643.03;6229299;28;96185;-68
2022/10/15 09:54:42;;;;;;;;;14.00;14.00;;;;;29.25;25.44;98658.88;6214735;28;96840;-67
2022/10/15 09:57:51;;;;;;;;;16.20;14.60;;;;;30.85;23.62;98660.56;6224875;28;96579;-67
2022/10/15 10:01:00;;;;;;;;;15.20;15.00;;;;;31.35;23.21;98657.78;6206081;28;98847;-67
2022/10/15 10:04:12;;;;;;;;;15.67;15.00;;;;;31.12;23.50;98656.06;6216856;28;96445;-68
2022/10/15 10:07:32;;;;;;;;;16.00;15.00;;;;;30.24;24.17;98651.84;6196044;28;97450;-67
2022/10/15 10:10:37;;;;;;;;;16.00;15.00;;;;;30.08;24.88;98660.13;6219198;28;96643;-67
2022/10/15 10:13:50;;;;;;;;;17.00;15.00;;;;;29.00;25.33;98659.25;6220685;28;96267;-67
2022/10/15 10:17:13;;;;;;;;;14.20;14.00;;;;;27.96;26.85;98634.72;6222059;28;98122;-67
2022/10/15 10:20:19;;;;;;;;;16.60;15.60;;;;;27.48;27.29;98638.88;6183255;28;97977;-67
2022/10/15 10:23:33;;;;;;;;;14.00;14.00;;;;;26.70;28.94;98643.31;6226743;28;96311;-67
2022/10/15 10:26:36;;;;;;;;;17.25;14.00;;;;;26.11;29.88;98643.19;6224665;28;96605;-67
2022/10/15 10:29:42;;;;;;;;;15.75;15.00;;;;;25.80;30.50;98650.91;6211929;28;98798;-67
2022/10/15 10:32:47;;;;;;;;;16.00;15.00;;;;;25.72;31.04;98647.00;6229818;27;96576;-66
2022/10/15 10:35:51;;;;;;;;;12.00;11.20;;;;;25.21;31.75;98613.88;6200786;28;96339;-66
2022/10/15 10:39:01;;;;;;;;;15.60;14.00;;;;;25.03;32.13;98648.88;6221637;28;96356;-67
2022/10/15 10:42:06;;;;;;;;;17.40;16.00;;;;;24.76;31.75;98655.47;6181089;28;97648;-66
2022/10/15 10:45:20;;;;;;;;;14.00;13.00;;;;;24.29;33.02;98659.00;6224388;28;96492;-67
2022/10/15 10:48:26;;;;;;;;;13.40;13.40;;;;;24.22;34.18;98647.63;6223675;28;96618;-66
2022/10/15 10:51:29;;;;;;;;;14.80;14.20;;;;;24.09;34.96;98652.84;6220413;28;96378;-67
2022/10/15 10:54:35;;;;;;;;;14.00;13.00;;;;;23.73;35.08;98669.50;6227111;28;96591;-67
2022/10/15 10:57:46;;;;;;;;;17.60;14.60;;;;;23.70;35.72;98661.84;6221648;28;96505;-66
2022/10/15 11:00:52;;;;;;;;;13.60;12.00;;;;;23.62;35.98;98656.28;6218846;28;96603;-67
2022/10/15 11:03:55;;;;;;;;;13.75;12.00;;;;;23.60;35.68;98666.81;6211327;28;96577;-67
2022/10/15 11:07:03;;;;;;;;;17.60;14.00;;;;;23.32;35.70;98674.28;6204933;28;98524;-67
2022/10/15 11:10:18;;;;;;;;;16.00;14.25;;;;;23.26;35.53;98670.84;6209145;28;96808;-66
2022/10/15 11:13:39;;;;;;;;;11.60;11.00;;;;;23.11;36.21;98671.19;6223991;28;96852;-65
2022/10/15 11:16:53;;;;;;;;;11.20;10.00;;;;;22.98;36.27;98674.78;6207205;28;97508;-67
2022/10/15 11:20:04;;;;;;;;;13.00;13.00;;;;;23.02;36.39;98667.53;6215752;28;96833;-66
2022/10/15 11:23:42;;;;;;;;;15.00;13.00;;;;;23.00;36.32;98667.03;6214794;28;96268;-65
2022/10/15 11:27:00;;;;;;;;;16.00;14.00;;;;;22.97;36.49;98669.59;6180142;28;98059;-67
2022/10/15 11:30:34;;;;;;;;;14.25;13.00;;;;;22.97;35.91;98664.09;6232478;28;96667;-66
2022/10/15 11:34:04;;;;;;;;;15.00;14.00;;;;;23.10;36.16;98663.25;6217075;28;96936;-67
2022/10/15 11:37:24;;;;;;;;;13.00;12.50;;;;;23.31;35.91;98658.94;6215722;28;97002;-67
2022/10/15 11:40:37;;;;;;;;;12.00;11.20;;;;;23.57;35.08;98656.41;6222282;28;97073;-67
2022/10/15 11:43:58;;;;;;;;;12.40;12.00;;;;;23.88;34.62;98649.03;6196274;28;96280;-67
2022/10/15 11:47:27;;;;;;;;;11.80;10.80;;;;;24.06;34.25;98641.66;6221085;28;96836;-66
2022/10/15 11:50:35;;;;;;;;;13.75;12.75;;;;;24.44;33.63;98639.28;6219842;28;97263;-65
2022/10/15 11:54:00;;;;;;;;;13.40;12.00;;;;;24.75;33.25;98637.28;6225055;28;96702;-67
2022/10/15 11:57:05;;;;;;;;;13.40;11.40;;;;;24.71;32.91;98641.00;6212744;28;97008;-67
2022/10/15 12:00:29;;;;;;;;;14.00;13.00;;;;;24.59;32.38;98636.09;6230508;28;96907;-66
2022/10/15 12:03:39;;;;;;;;;15.50;15.50;;;;;24.81;32.16;98638.78;6191588;28;98424;-67
2022/10/15 12:06:48;;;;;;;;;12.25;11.25;;;;;24.72;32.46;98637.13;6212672;28;98669;-67
2022/10/15 12:09:55;;;;;;;;;14.00;13.60;;;;;24.76;32.53;98638.09;6219217;28;96440;-66
2022/10/15 12:13:06;;;;;;;;;15.00;13.60;;;;;24.58;32.19;98635.28;6212619;28;96788;-67
2022/10/15 12:16:23;;;;;;;;;11.80;10.80;;;;;24.45;32.08;98633.47;6211268;28;96917;-67
2022/10/15 12:19:34;;;;;;;;;12.00;11.00;;;;;24.41;32.60;98634.41;6211237;28;96681;-67
2022/10/15 12:22:40;;;;;;;;;11.20;11.20;;;;;24.41;32.69;98635.22;6207593;28;97239;-67
2022/10/15 12:25:46;;;;;;;;;15.40;14.00;;;;;24.23;32.70;98633.53;6223645;28;96812;-67
2022/10/15 12:28:52;;;;;;;;;12.60;12.00;;;;;24.04;32.69;98630.97;6227463;28;96434;-66
2022/10/15 12:31:57;;;;;;;;;11.60;11.20;;;;;23.89;32.84;98639.66;6222889;28;96391;-66
2022/10/15 12:35:04;;;;;;;;;13.00;12.60;;;;;23.72;33.69;98639.53;6195849;28;98657;-66
2022/10/15 12:38:20;;;;;;;;;12.00;10.00;;;;;23.63;33.25;98627.63;6197261;28;96280;-67
2022/10/15 12:41:36;;;;;;;;;15.40;14.00;;;;;23.61;33.47;98640.88;6219813;28;96359;-66
2022/10/15 12:44:40;;;;;;;;;12.00;11.40;;;;;23.69;33.11;98632.72;6215445;28;96510;-66
2022/10/15 12:47:49;;;;;;;;;14.00;13.00;;;;;23.70;32.74;98628.81;6214541;28;96908;-66
2022/10/15 12:51:39;;;;;;;;;13.20;12.20;;;;;23.73;33.29;98639.22;6208818;28;96507;-66
2022/10/15 12:54:45;;;;;;;;;13.00;12.00;;;;;23.51;32.99;98636.44;6209329;28;96395;-66
2022/10/15 12:57:56;;;;;;;;;10.80;10.80;;;;;23.35;33.22;98604.09;6213441;28;96476;-67
2022/10/15 13:01:06;;;;;;;;;12.00;9.80;;;;;23.52;32.76;98626.25;6204375;28;97602;-67
2022/10/15 13:04:11;;;;;;;;;15.60;14.00;;;;;23.63;33.29;98624.88;6202550;28;96832;-66
2022/10/15 13:07:15;;;;;;;;;12.50;12.50;;;;;23.74;32.86;98620.75;6216037;28;96282;-67
2022/10/15 13:10:23;;;;;;;;;11.00;10.00;;;;;23.87;32.53;98621.81;6198864;28;97080;-66
2022/10/15 13:13:29;;;;;;;;;13.40;11.40;;;;;23.94;32.33;98620.25;6211296;28;96435;-67
2022/10/15 13:16:33;;;;;;;;;12.00;11.50;;;;;24.07;32.00;98616.56;6222744;28;96377;-67
2022/10/15 13:19:40;;;;;;;;;11.75;11.00;;;;;24.22;31.81;98620.06;6177222;28;96688;-67
2022/10/15 13:22:44;;;;;;;;;10.00;8.00;;;;;24.22;31.85;98607.13;6198778;28;96834;-67
2022/10/15 13:25:48;;;;;;;;;11.00;11.00;;;;;24.23;31.43;98610.69;6219112;28;98294;-66
2022/10/15 13:28:53;;;;;;;;;13.00;11.00;;;;;24.16;31.44;98605.59;6210591;28;96778;-66
2022/10/15 13:31:57;;;;;;;;;10.20;9.40;;;;;24.12;31.62;98607.38;6193355;28;96363;-66
2022/10/15 13:35:09;;;;;;;;;10.00;10.00;;;;;23.99;31.39;98614.59;6215937;28;96230;-67
2022/10/15 13:38:21;;;;;;;;;14.00;13.00;;;;;24.01;31.74;98609.56;6221685;28;96638;-66
2022/10/15 13:41:28;;;;;;;;;11.50;11.00;;;;;23.92;31.32;98618.91;6225688;28;96513;-66
2022/10/15 13:44:34;;;;;;;;;11.25;11.00;;;;;23.81;31.72;98612.84;6211492;28;96377;-66
2022/10/15 13:47:41;;;;;;;;;11.40;11.00;;;;;23.73;31.87;98617.19;6213009;28;96442;-67
2022/10/15 13:50:48;;;;;;;;;11.25;11.25;;;;;23.76;32.35;98626.75;6210976;28;96469;-67
2022/10/15 13:53:51;;;;;;;;;11.00;11.00;;;;;23.62;31.74;98613.06;6209370;28;96737;-65
2022/10/15 13:56:57;;;;;;;;;11.00;9.75;;;;;23.54;31.73;98622.09;6204470;28;97878;-66
2022/10/15 14:00:01;;;;;;;;;11.00;10.00;;;;;23.40;31.13;98614.97;6223902;28;96855;-67
2022/10/15 14:03:16;;;;;;;;;12.80;10.80;;;;;23.23;31.53;98616.47;6219992;28;96560;-66
2022/10/15 14:06:23;;;;;;;;;11.00;11.00;;;;;23.09;32.22;98617.63;6210130;28;97434;-66
2022/10/15 14:09:31;;;;;;;;;11.00;11.00;;;;;23.11;31.91;98621.72;6217342;28;97313;-66
2022/10/15 14:12:34;;;;;;;;;11.00;10.60;;;;;23.13;32.21;98619.44;6215911;28;96422;-67
2022/10/15 14:15:57;;;;;;;;;8.80;8.80;;;;;23.10;31.87;98627.50;6213651;28;97092;-67
2022/10/15 14:19:10;;;;;;;;;11.00;9.75;;;;;22.95;32.00;98633.34;6201238;28;96855;-67
2022/10/15 14:22:18;;;;;;;;;13.00;11.50;;;;;22.77;32.49;98618.63;6207108;28;96592;-67
2022/10/15 14:25:25;;;;;;;;;13.00;12.60;;;;;22.67;32.52;98622.38;6215761;28;96537;-66